Home > Products > Valid Products > MTR

000
SAUS44 KLCH 230154
MTRP92
METAR KP92 230153Z AUTO 16005KT 19/17 A2971 RMK AO1 SLP061 T01940172





000
SAUS44 KLCH 230054
MTRP92
METAR KP92 230053Z AUTO VRB04KT 21/18 A2970 RMK AO1 SLP057 T02060183





000
SAUS44 KLCH 222355
MTRP92
METAR KP92 222353Z AUTO VRB03KT 21/18 A2970 RMK AO1 SLP056 T02060183
10228 20194 55000





000
SAUS44 KLCH 222255
MTRP92
METAR KP92 222253Z AUTO VRB05KT 21/19 A2970 RMK AO1 SLP055 T02110189





000
SAUS44 KLCH 222155
MTRP92
METAR KP92 222153Z AUTO VRB04KT 22/19 A2970 RMK AO1 SLP056 T02170189





000
SAUS44 KLCH 222054
MTRP92
METAR KP92 222053Z AUTO VRB05KT 22/18 A2970 RMK AO1 SLP056 T02220183
56020





000
SAUS44 KLCH 221954
MTRP92
METAR KP92 221953Z AUTO VRB05KT 20/17 A2971 RMK AO1 SLP061 T02000172





000
SAUS44 KLCH 221855
MTRP92
METAR KP92 221853Z AUTO VRB05KT 23/18 A2973 RMK AO1 SLP066 T02280183





000
SAUS44 KLCH 221755
MTRP92
METAR KP92 221753Z AUTO VRB06KT 22/17 A2976 RMK AO1 SLP077 T02170172
10233 20150 58014





000
SAUS44 KLCH 221654
MTRP92
METAR KP92 221653Z AUTO VRB06KT 22/18 A2977 RMK AO1 SLP082 T02220178





000
SAUS44 KLCH 221554
MTRP92
METAR KP92 221553Z AUTO 13007KT 22/18 A2979 RMK AO1 SLP088 T02170178





000
SAUS44 KLCH 221554
MTRP92
METAR KP92 221553Z AUTO 13007KT 22/18 A2979 RMK AO1 SLP088 T02170178





000
SAUS44 KLCH 221454
MTRP92
METAR KP92 221453Z AUTO 12005KT 18/16 A2980 RMK AO1 SLP091 T01780156





000
SAUS44 KLCH 221354
MTRP92
METAR KP92 221353Z AUTO 00000KT 16/14 A2981 RMK AO1 SLP094 T01560139





000
SAUS44 KLCH 221254
MTRP92
METAR KP92 221253Z AUTO 00000KT 16/13 A2982 RMK AO1 SLP098 T01560133
$





000
SAUS44 KLCH 221155
MTRP92
METAR KP92 221153Z AUTO 00000KT 15/13 A2983 RMK AO1 SLP100 T01500133
10150 20139 55010 $





000
SAUS44 KLCH 221054
MTRP92
METAR KP92 221053Z AUTO 06003KT 15/13 A2982 RMK AO1 SLP098 T01500128
$





000
SAUS44 KLCH 221054
MTRP92
METAR KP92 221053Z AUTO 06003KT 15/13 A2982 RMK AO1 SLP098 T01500128
$





000
SAUS44 KLCH 220955
MTRP92
METAR KP92 220953Z AUTO 00000KT 14/12 A2985 RMK AO1 SLP106 T01440122
$





000
SAUS44 KLCH 220955
MTRP92
METAR KP92 220953Z AUTO 00000KT 14/12 A2985 RMK AO1 SLP106 T01440122
$





000
SAUS44 KLCH 220854
MTRP92
METAR KP92 220853Z AUTO 00000KT 14/12 A2986 RMK AO1 SLP110 T01440122
56022 $





000
SAUS44 KLCH 220755
MTRP92
METAR KP92 220753Z AUTO 12005KT 14/12 A2987 RMK AO1 SLP114 T01390117
$





000
SAUS44 KLCH 220755
MTRP92
METAR KP92 220753Z AUTO 12005KT 14/12 A2987 RMK AO1 SLP114 T01390117
$





000
SAUS44 KLCH 220655
MTRP92
METAR KP92 220653Z AUTO 00000KT 14/12 A2989 RMK AO1 SLP122 T01390117
$





000
SAUS44 KLCH 220554
MTRP92
METAR KP92 220553Z AUTO 00000KT 14/11 A2992 RMK AO1 SLP132 T01390111
10139 20122 401560117 58010 $





000
SAUS44 KLCH 220454
MTRP92
METAR KP92 220453Z AUTO 00000KT 14/11 A2995 RMK AO1 SLP142 T01390111
$





000
SAUS44 KLCH 220355
MTRP92
METAR KP92 220353Z AUTO 00000KT 13/11 A2994 RMK AO1 SLP139 T01330111
$





000
SAUS44 KLCH 220254
MTRP92
METAR KP92 220253Z AUTO 00000KT 12/09 A2995 RMK AO1 SLP143 T01220094
56003 $





000
SAUS44 KLCH 220155
MTRP92
METAR KP92 220153Z AUTO 00000KT 13/10 A2996 RMK AO1 SLP143 T01280100
$





000
SAUS44 KLCH 220155
MTRP92
METAR KP92 220153Z AUTO 00000KT 13/10 A2996 RMK AO1 SLP143 T01280100
$





000
SAUS44 KLCH 220055
MTRP92
METAR KP92 220053Z AUTO 00000KT 13/11 A2995 RMK AO1 SLP142 T01280106
$





000
SAUS44 KLCH 220055
MTRP92
METAR KP92 220053Z AUTO 00000KT 13/11 A2995 RMK AO1 SLP142 T01280106
$





000
SAUS44 KLCH 212355
MTRP92
METAR KP92 212353Z AUTO 00000KT 14/11 A2996 RMK AO1 SLP146 T01390111
10156 20139 56013 $





000
SAUS44 KLCH 212355
MTRP92
METAR KP92 212353Z AUTO 00000KT 14/11 A2996 RMK AO1 SLP146 T01390111
10156 20139 56013 $





000
SAUS44 KLCH 212254
MTRP92
METAR KP92 212253Z AUTO 00000KT 14/11 A2997 RMK AO1 SLP147 T01390111
$





000
SAUS44 KLCH 212154
MTRP92
METAR KP92 212153Z AUTO 00000KT 14/11 A2998 RMK AO1 SLP152 T01390106
$





000
SAUS44 KLCH 212054
MTRP92
METAR KP92 212053Z AUTO 00000KT 14/11 A3000 RMK AO1 SLP159 T01440106
56027 $





000
SAUS44 KLCH 211954
MTRP92
METAR KP92 211953Z AUTO 23003KT 15/11 A3001 RMK AO1 SLP163 T01500111
$





000
SAUS44 KLCH 211954
MTRP92
METAR KP92 211953Z AUTO 23003KT 15/11 A3001 RMK AO1 SLP163 T01500111
$





000
SAUS44 KLCH 211855
MTRP92
METAR KP92 211853Z AUTO 12004KT 16/11 A3003 RMK AO1 SLP169 T01560111
$





000
SAUS44 KLCH 211755
MTRP92
METAR KP92 211753Z AUTO VRB03KT 15/11 A3008 RMK AO1 SLP186 T01500106
10150 20117 $





000
SAUS44 KLCH 211655
MTRP92
METAR KP92 211653Z AUTO VRB03KT 14/11 A3011 RMK AO1 SLP197 T01390106
$





000
SAUS44 KLCH 211554
MTRP92
METAR KP92 211553Z AUTO 04003KT 13/10 A3012 RMK AO1 SLP199 T01330100
$





000
SAUS44 KLCH 211454
MTRP92
METAR KP92 211453Z AUTO 00000KT 13/09 A3011 RMK AO1 SLP195 T01280094
53007





000
SAUS44 KLCH 211355
MTRP92
METAR KP92 211353Z AUTO VRB03KT 12/09 A3010 RMK AO1 SLP191 T01220094





000
SAUS44 KLCH 211355
MTRP92
METAR KP92 211353Z AUTO VRB03KT 12/09 A3010 RMK AO1 SLP191 T01220094





000
SAUS44 KLCH 211254
MTRP92
METAR KP92 211253Z AUTO 00000KT 12/09 A3010 RMK AO1 SLP191 T01170094





000
SAUS44 KLCH 211254
MTRP92
METAR KP92 211253Z AUTO 00000KT 12/09 A3010 RMK AO1 SLP191 T01170094





000
SAUS44 KLCH 211155
MTRP92
METAR KP92 211153Z AUTO 00000KT 12/09 A3009 RMK AO1 SLP188 T01170089
10122 20117 56011





000
SAUS44 KLCH 211155
MTRP92
METAR KP92 211153Z AUTO 00000KT 12/09 A3009 RMK AO1 SLP188 T01170089
10122 20117 56011





000
SAUS44 KLCH 211054
MTRP92
METAR KP92 211053Z AUTO 00000KT 12/09 A3009 RMK AO1 SLP190 T01220094





000
SAUS44 KLCH 211054
MTRP92
METAR KP92 211053Z AUTO 00000KT 12/09 A3009 RMK AO1 SLP190 T01220094





000
SAUS44 KLCH 210955
MTRP92
METAR KP92 210953Z AUTO 00000KT 12/09 A3011 RMK AO1 SLP196 T01220094





000
SAUS44 KLCH 210955
MTRP92
METAR KP92 210953Z AUTO 00000KT 12/09 A3011 RMK AO1 SLP196 T01220094





000
SAUS44 KLCH 210855
MTRP92
METAR KP92 210853Z AUTO 00000KT 12/09 A3012 RMK AO1 SLP200 T01220094
56005





000
SAUS44 KLCH 210754
MTRP92
METAR KP92 210753Z AUTO VRB03KT 12/09 A3012 RMK AO1 SLP200 T01220094





000
SAUS44 KLCH 210654
MTRP92
METAR KP92 210653Z AUTO VRB03KT 12/09 A3013 RMK AO1 SLP201 T01220094





000
SAUS44 KLCH 210554
MTRP92
METAR KP92 210553Z AUTO 00000KT 12/09 A3014 RMK AO1 SLP205 T01170094
10122 20117 401390117





000
SAUS44 KLCH 210454
MTRP92
METAR KP92 210453Z AUTO 00000KT 12/09 A3016 RMK AO1 SLP212 T01220094





000
SAUS44 KLCH 210454
MTRP92
METAR KP92 210453Z AUTO 00000KT 12/09 A3016 RMK AO1 SLP212 T01220094





000
SAUS44 KLCH 210355
MTRP92
METAR KP92 210353Z AUTO 00000KT 12/09 A3015 RMK AO1 SLP210 T01220094





000
SAUS44 KLCH 210355
MTRP92
METAR KP92 210353Z AUTO 00000KT 12/09 A3015 RMK AO1 SLP210 T01220094





000
SAUS44 KLCH 210254
MTRP92
METAR KP92 210253Z AUTO VRB03KT 12/09 A3015 RMK AO1 SLP209 T01220094
50011





000
SAUS44 KLCH 210155
MTRP92
METAR KP92 210153Z AUTO 00000KT 12/09 A3015 RMK AO1 SLP209 T01220094





000
SAUS44 KLCH 210055
MTRP92
METAR KP92 210053Z AUTO 00000KT 12/09 A3013 RMK AO1 SLP202 T01220094





000
SAUS44 KLCH 202354
MTRP92
METAR KP92 202353Z AUTO VRB06KT 12/09 A3012 RMK AO1 SLP198 T01220094
10133 20122 53007





000
SAUS44 KLCH 202254
MTRP92
METAR KP92 202253Z AUTO VRB05KT 12/09 A3011 RMK AO1 SLP195 T01220094





000
SAUS44 KLCH 202155
MTRP92
METAR KP92 202153Z AUTO VRB04KT 13/09 A3010 RMK AO1 SLP192 T01280094





000
SAUS44 KLCH 202054
MTRP92
METAR KP92 202053Z AUTO VRB03KT 13/10 A3010 RMK AO1 SLP191 T01280100
55010





000
SAUS44 KLCH 201955
MTRP92
METAR KP92 201953Z AUTO VRB05KT 13/09 A3009 RMK AO1 SLP189 T01280094





000
SAUS44 KLCH 201854
MTRP92
METAR KP92 201853Z AUTO VRB05KT 13/10 A3010 RMK AO1 SLP192 T01330100





000
SAUS44 KLCH 201755
MTRP92
METAR KP92 201753Z AUTO VRB06KT 13/10 A3013 RMK AO1 SLP201 T01280100
10139 20117 $





000
SAUS44 KLCH 201655
MTRP92
METAR KP92 201653Z AUTO VRB06KT 13/10 A3014 RMK AO1 SLP206 T01330100





000
SAUS44 KLCH 201555
MTRP92
METAR KP92 201553Z AUTO VRB05KT 13/10 A3015 RMK AO1 SLP207 T01330100





000
SAUS44 KLCH 201455
MTRP92
METAR KP92 201453Z AUTO 12/09 A3013 RMK AO1 SLP203 T01220094 53014





000
SAUS44 KLCH 201355
MTRP92
METAR KP92 201353Z AUTO 01007KT 12/09 A3012 RMK AO1 SLP200 T01170094





000
SAUS44 KLCH 201255
MTRP92
METAR KP92 201253Z AUTO VRB06KT 12/09 A3010 RMK AO1 SLP192 T01170094





000
SAUS44 KLCH 201155
MTRP92
METAR KP92 201153Z AUTO VRB05KT 12/09 A3009 RMK AO1 SLP189 60003
70123 T01170094 10133 20117 53019





000
SAUS44 KLCH 201055
MTRP92
METAR KP92 201053Z AUTO VRB05KT 12/09 A3006 RMK AO1 SLP179 T01170094





000
SAUS44 KLCH 200954
MTRP92
METAR KP92 200953Z AUTO VRB05KT 12/10 A3005 RMK AO1 SLP175 T01220100





000
SAUS44 KLCH 200855
MTRP92
METAR KP92 200853Z AUTO 01008KT 13/11 A3003 RMK AO1 SLP170 60003
T01280106 51005





000
SAUS44 KLCH 200755
MTRP92
METAR KP92 200753Z AUTO VRB06KT 13/10 A3003 RMK AO1 SLP170 P0001
T01280100





000
SAUS44 KLCH 200755
MTRP92
METAR KP92 200753Z AUTO VRB06KT 13/10 A3003 RMK AO1 SLP170 P0001
T01280100





000
SAUS44 KLCH 200654
MTRP92
METAR KP92 200653Z AUTO VRB05KT 13/11 A3002 RMK AO1 SLP166 P0002
T01280106





000
SAUS44 KLCH 200559 COR
MTRP92
METAR KP92 200553Z AUTO VRB04KT 13/10 A3002 RMK AO1 SLP164 60025
T01280100 10144 20117 401780117 58010





000
SAUS44 KLCH 200555 COR
MTRP92
METAR KP92 200553Z AUTO VRB04KT 13/10 A3002 RMK AO1 SLP164 60025
T01280100 10144 20117 401780117 58010





000
SAUS44 KLCH 200455
MTRP92
METAR KP92 200453Z AUTO VRB04KT 12/10 A3003 RMK AO1 SLP169 P0001
T01220100





000
SAUS44 KLCH 200355
MTRP92
METAR KP92 200353Z AUTO VRB06KT 12/09 A3004 RMK AO1 SLP171 P0001
T01170094





000
SAUS44 KLCH 200355
MTRP92
METAR KP92 200353Z AUTO VRB06KT 12/09 A3004 RMK AO1 SLP171 P0001
T01170094





000
SAUS44 KLCH 200255
MTRP92
METAR KP92 200253Z AUTO VRB06KT 12/09 A3005 RMK AO1 SLP174 P0003
60023 T01220094 50010





    US Dept of Commerce
    National Oceanic and Atmospheric Administration
    National Weather Service
    1325 East West Highway
    Silver Spring, MD 20910
    Page Author: NWS Internet Services Team
Disclaimer
Information Quality
Credits
Glossary
Privacy Policy
Freedom of Information Act (FOIA)
About Us
Career Opportunities